Time;durP1;ratioP1;P1;durP2;ratioP2;P2;SDS_P1;SDS_P2;PMS_P1;PMS_P2;Temp;Humidity;BMP_temperature;BMP_pressure;BME280_temperature;BME280_humidity;BME280_pressure;Samples;Min_cycle;Max_cycle;Signal;HPM_P1;HPM_P2
2022/06/09 00:00:28;;;;;;;2.40;1.20;;;16.20;57.10;;;;;;4991603;28;20201;-55
2022/06/09 00:03:05;;;;;;;1.80;1.00;;;16.20;57.00;;;;;;4985230;28;20579;-54
2022/06/09 00:05:36;;;;;;;1.92;0.90;;;16.20;57.10;;;;;;4978845;28;20201;-55
2022/06/09 00:08:09;;;;;;;2.17;1.15;;;16.20;57.00;;;;;;4991285;28;20221;-56
2022/06/09 00:10:43;;;;;;;1.75;1.02;;;16.30;57.10;;;;;;4991579;28;20208;-56
2022/06/09 00:13:14;;;;;;;1.90;1.00;;;16.30;57.20;;;;;;4991277;28;20233;-57
2022/06/09 00:15:45;;;;;;;3.00;1.40;;;16.30;57.20;;;;;;4980537;28;20198;-52
2022/06/09 00:18:17;;;;;;;2.53;1.23;;;16.30;58.40;;;;;;4971434;28;20598;-53
2022/06/09 00:20:48;;;;;;;2.15;1.10;;;16.40;58.00;;;;;;4971917;28;20198;-54
2022/06/09 00:23:19;;;;;;;2.47;1.00;;;16.40;57.90;;;;;;4971727;28;20198;-52
2022/06/09 00:25:49;;;;;;;3.90;1.10;;;16.40;57.80;;;;;;4971520;28;20260;-53
2022/06/09 00:28:20;;;;;;;1.83;1.10;;;16.50;57.80;;;;;;4970685;28;20256;-54
2022/06/09 00:30:51;;;;;;;2.20;1.10;;;16.50;57.80;;;;;;4971623;28;20213;-55
2022/06/09 00:33:23;;;;;;;1.75;0.90;;;16.50;57.70;;;;;;4972132;28;20206;-54
2022/06/09 00:35:54;;;;;;;1.77;1.05;;;16.50;57.60;;;;;;4980479;28;20577;-53
2022/06/09 00:38:25;;;;;;;1.55;1.02;;;16.50;57.60;;;;;;4990961;28;20240;-57
2022/06/09 00:41:00;;;;;;;1.63;1.00;;;16.50;57.50;;;;;;4989985;28;20198;-55
2022/06/09 00:43:31;;;;;;;2.45;0.93;;;16.50;57.60;;;;;;4992056;28;20200;-53
2022/06/09 00:46:13;;;;;;;0.85;0.73;;;16.50;57.60;;;;;;4994490;28;20487;-54
2022/06/09 00:48:50;;;;;;;2.53;1.10;;;16.50;57.60;;;;;;4994234;28;20220;-53
2022/06/09 00:51:34;;;;;;;2.10;1.00;;;16.60;57.50;;;;;;4994437;28;20681;-53
2022/06/09 00:54:09;;;;;;;1.00;0.80;;;16.60;57.50;;;;;;4994962;28;20201;-53
2022/06/09 00:56:44;;;;;;;2.40;1.08;;;16.60;57.40;;;;;;4995532;28;20204;-54
2022/06/09 00:59:16;;;;;;;1.80;1.08;;;16.60;57.30;;;;;;4994747;28;20229;-54
2022/06/09 01:01:48;;;;;;;1.13;0.80;;;16.60;57.20;;;;;;4995525;28;20202;-55
2022/06/09 01:04:21;;;;;;;1.13;0.82;;;16.60;57.10;;;;;;4994331;28;20198;-54
2022/06/09 01:06:55;;;;;;;1.80;1.17;;;16.60;57.00;;;;;;4993453;28;20221;-53
2022/06/09 01:09:28;;;;;;;1.40;0.90;;;16.60;56.90;;;;;;4994129;28;20209;-54
2022/06/09 01:11:59;;;;;;;2.13;1.15;;;16.70;56.90;;;;;;4994983;28;20204;-54
2022/06/09 01:14:32;;;;;;;1.35;0.80;;;16.70;56.80;;;;;;4994793;28;20646;-54
2022/06/09 01:17:11;;;;;;;2.33;0.77;;;16.70;56.70;;;;;;4994175;28;20580;-54
2022/06/09 01:19:59;;;;;;;1.63;0.88;;;16.70;56.60;;;;;;4995057;28;20586;-54
2022/06/09 01:22:58;;;;;;;1.55;1.00;;;16.70;56.60;;;;;;4995146;28;20201;-55
2022/06/09 01:26:00;;;;;;;1.85;0.80;;;16.70;56.50;;;;;;4994525;28;20247;-54
2022/06/09 01:28:49;;;;;;;1.60;0.90;;;16.70;56.50;;;;;;4994586;28;20221;-54
2022/06/09 01:31:27;;;;;;;1.30;0.85;;;16.70;56.40;;;;;;4994517;28;20197;-54
2022/06/09 01:34:07;;;;;;;1.13;0.80;;;16.70;56.40;;;;;;4994308;28;20197;-56
2022/06/09 01:36:44;;;;;;;2.03;0.73;;;16.70;56.40;;;;;;4991215;28;20200;-56
2022/06/09 01:39:14;;;;;;;2.05;1.00;;;16.70;56.30;;;;;;4973720;28;20230;-54
2022/06/09 01:41:51;;;;;;;1.75;1.02;;;16.70;56.30;;;;;;4974757;28;20659;-53
2022/06/09 01:44:22;;;;;;;1.55;0.80;;;16.70;56.20;;;;;;4975153;28;20205;-54
2022/06/09 01:46:56;;;;;;;1.23;0.93;;;16.70;56.20;;;;;;4974618;28;20222;-52
2022/06/09 01:49:32;;;;;;;2.08;1.00;;;16.70;56.20;;;;;;4980435;28;20194;-54
2022/06/09 01:52:04;;;;;;;2.20;0.90;;;16.70;56.10;;;;;;4994692;28;20271;-53
2022/06/09 01:54:39;;;;;;;2.05;0.82;;;16.70;56.10;;;;;;4988014;28;20249;-53
2022/06/09 01:57:15;;;;;;;0.93;0.77;;;16.70;56.10;;;;;;4974821;28;20221;-56
2022/06/09 01:59:50;;;;;;;1.98;0.90;;;16.70;56.10;;;;;;4974507;28;20248;-52
2022/06/09 02:02:30;;;;;;;0.88;0.63;;;16.70;56.10;;;;;;4974900;28;20194;-53
2022/06/09 02:05:05;;;;;;;1.08;0.65;;;16.70;56.00;;;;;;4976436;28;20845;-54
2022/06/09 02:07:37;;;;;;;2.35;0.90;;;16.80;56.10;;;;;;4994056;28;20213;-53
2022/06/09 02:10:20;;;;;;;0.90;0.80;;;16.80;56.10;;;;;;4993697;28;20206;-54
2022/06/09 02:12:52;;;;;;;1.38;0.70;;;16.80;56.00;;;;;;4994289;28;20539;-54
2022/06/09 02:15:29;;;;;;;0.88;0.52;;;16.80;56.00;;;;;;4994259;28;20201;-51
2022/06/09 02:18:06;;;;;;;1.05;0.68;;;16.80;56.00;;;;;;4993806;28;20237;-55
2022/06/09 02:20:41;;;;;;;1.63;0.60;;;16.80;55.90;;;;;;4993848;28;20706;-54
2022/06/09 02:23:13;;;;;;;0.75;0.60;;;16.80;55.90;;;;;;4993744;28;20197;-53
2022/06/09 02:25:44;;;;;;;1.27;0.70;;;16.80;55.90;;;;;;4993741;28;20197;-55
2022/06/09 02:28:15;;;;;;;1.40;0.60;;;16.80;55.90;;;;;;4993776;28;20221;-53
2022/06/09 02:30:45;;;;;;;0.80;0.73;;;16.80;55.90;;;;;;4993303;28;20197;-50
2022/06/09 02:33:18;;;;;;;1.58;0.68;;;16.80;55.90;;;;;;4990799;28;20197;-52
2022/06/09 02:35:49;;;;;;;0.68;0.60;;;16.80;55.90;;;;;;4990296;28;20194;-55
2022/06/09 02:38:21;;;;;;;1.50;0.75;;;16.80;55.90;;;;;;4991405;28;20418;-53
2022/06/09 02:40:54;;;;;;;0.88;0.60;;;16.80;55.80;;;;;;4992512;28;20206;-50
2022/06/09 02:43:25;;;;;;;0.75;0.65;;;16.80;55.80;;;;;;4980448;28;20202;-53
2022/06/09 02:45:56;;;;;;;1.17;0.80;;;16.80;55.70;;;;;;4973153;28;20198;-54
2022/06/09 02:48:30;;;;;;;1.23;0.60;;;16.80;55.70;;;;;;4972760;28;20577;-53
2022/06/09 02:51:15;;;;;;;0.70;0.70;;;16.80;55.70;;;;;;4981036;28;20682;-52
2022/06/09 02:53:46;;;;;;;1.67;0.60;;;16.80;55.60;;;;;;4991730;28;20689;-53
2022/06/09 02:56:17;;;;;;;1.17;0.70;;;16.80;56.20;;;;;;4974930;28;20557;-53
2022/06/09 02:58:48;;;;;;;1.75;0.75;;;16.80;55.60;;;;;;4973037;28;20234;-53
2022/06/09 03:01:19;;;;;;;1.10;0.80;;;16.80;55.60;;;;;;4992430;28;20212;-52
2022/06/09 03:03:51;;;;;;;1.80;0.68;;;16.80;55.50;;;;;;4992295;28;20669;-54
2022/06/09 03:06:22;;;;;;;0.73;0.60;;;16.90;55.50;;;;;;4992042;28;20209;-53
2022/06/09 03:08:53;;;;;;;1.67;1.15;;;16.90;55.50;;;;;;4992478;28;20256;-53
2022/06/09 03:11:24;;;;;;;1.15;0.68;;;16.90;55.50;;;;;;4992265;28;20205;-53
2022/06/09 03:13:54;;;;;;;0.95;0.70;;;16.90;55.50;;;;;;4992242;28;20193;-53
2022/06/09 03:16:28;;;;;;;1.40;0.60;;;16.90;55.40;;;;;;4992303;28;20213;-55
2022/06/09 03:19:00;;;;;;;1.88;0.60;;;16.90;55.40;;;;;;4992312;28;20263;-54
2022/06/09 03:21:31;;;;;;;0.52;0.50;;;16.90;55.90;;;;;;4992611;28;20194;-51
2022/06/09 03:24:02;;;;;;;1.30;0.70;;;17.00;55.30;;;;;;4992058;28;20295;-51
2022/06/09 03:26:32;;;;;;;1.02;0.63;;;17.00;55.30;;;;;;4991213;28;20205;-50
2022/06/09 03:29:03;;;;;;;0.88;0.77;;;17.00;55.20;;;;;;4992149;28;20209;-52
2022/06/09 03:31:34;;;;;;;1.08;0.55;;;17.00;55.20;;;;;;4983631;28;20562;-52
2022/06/09 03:34:07;;;;;;;1.48;0.50;;;17.00;55.20;;;;;;4972560;28;20198;-51
2022/06/09 03:36:37;;;;;;;1.23;0.63;;;17.10;55.30;;;;;;4985308;28;20224;-50
2022/06/09 03:39:08;;;;;;;1.50;0.47;;;17.10;55.30;;;;;;4973400;28;20252;-52
2022/06/09 03:41:39;;;;;;;1.20;0.70;;;17.10;55.30;;;;;;4972984;28;20651;-51
2022/06/09 03:44:10;;;;;;;0.50;0.45;;;17.10;55.30;;;;;;4972267;28;20202;-52
2022/06/09 03:46:41;;;;;;;0.68;0.60;;;17.20;55.30;;;;;;4972185;28;20341;-56
2022/06/09 03:49:14;;;;;;;2.10;0.65;;;17.20;55.20;;;;;;4972135;28;20198;-57
2022/06/09 03:51:44;;;;;;;0.75;0.50;;;17.20;55.20;;;;;;4977348;28;20221;-51
2022/06/09 03:54:15;;;;;;;1.70;0.60;;;17.20;55.10;;;;;;4991750;28;20204;-53
2022/06/09 03:56:47;;;;;;;0.93;0.57;;;17.30;55.10;;;;;;4993209;28;20201;-54
2022/06/09 03:59:18;;;;;;;1.00;0.60;;;17.30;55.00;;;;;;4991245;28;20305;-53
2022/06/09 04:01:49;;;;;;;0.75;0.55;;;17.30;55.00;;;;;;4991741;28;20201;-54
2022/06/09 04:04:22;;;;;;;0.70;0.70;;;17.40;55.00;;;;;;4975578;28;20209;-52
2022/06/09 04:06:53;;;;;;;0.77;0.60;;;17.30;54.90;;;;;;4989378;28;20248;-53
2022/06/09 04:09:24;;;;;;;1.58;0.50;;;17.40;55.00;;;;;;4991534;28;20221;-54
2022/06/09 04:11:55;;;;;;;0.47;0.40;;;17.40;54.90;;;;;;4990668;28;20204;-54
2022/06/09 04:14:25;;;;;;;0.45;0.40;;;17.40;54.90;;;;;;4991544;28;20198;-55
2022/06/09 04:16:57;;;;;;;0.68;0.60;;;17.40;54.70;;;;;;4990801;28;20236;-54
2022/06/09 04:19:29;;;;;;;1.15;0.60;;;17.40;54.60;;;;;;4983264;28;20218;-53
2022/06/09 04:22:00;;;;;;;2.20;0.50;;;17.40;54.40;;;;;;4971349;28;20198;-53
2022/06/09 04:24:31;;;;;;;2.03;0.50;;;17.40;54.40;;;;;;4971583;28;20198;-53
2022/06/09 04:27:01;;;;;;;0.90;0.60;;;17.40;54.30;;;;;;4976166;28;20218;-52
2022/06/09 04:29:32;;;;;;;0.90;0.63;;;17.40;54.30;;;;;;4991183;28;20229;-54
2022/06/09 04:32:04;;;;;;;1.75;0.68;;;17.50;54.30;;;;;;4978806;28;20190;-50
2022/06/09 04:34:37;;;;;;;0.85;0.60;;;17.50;54.30;;;;;;4971529;28;20249;-53
2022/06/09 04:37:07;;;;;;;1.70;0.60;;;17.50;54.30;;;;;;4989829;28;20226;-53
2022/06/09 04:39:38;;;;;;;0.40;0.40;;;17.50;54.30;;;;;;4991112;28;20595;-53
2022/06/09 04:42:09;;;;;;;2.95;0.70;;;17.50;54.30;;;;;;4990701;28;20198;-53
2022/06/09 04:44:41;;;;;;;1.33;0.50;;;17.50;54.30;;;;;;4990999;28;20221;-54
2022/06/09 04:47:11;;;;;;;1.95;0.45;;;17.40;54.20;;;;;;4990549;28;20218;-52
2022/06/09 04:49:44;;;;;;;1.05;0.45;;;17.40;54.20;;;;;;4989487;28;20202;-53
2022/06/09 04:52:14;;;;;;;0.77;0.60;;;17.40;54.20;;;;;;4990995;28;20316;-51
2022/06/09 04:54:45;;;;;;;0.63;0.55;;;17.40;54.20;;;;;;4991237;28;20204;-54
2022/06/09 04:57:16;;;;;;;0.90;0.70;;;17.40;54.20;;;;;;4989511;28;20213;-54
2022/06/09 04:59:46;;;;;;;1.23;0.73;;;17.40;54.20;;;;;;4990009;28;20229;-56
2022/06/09 05:02:17;;;;;;;0.77;0.50;;;17.40;54.20;;;;;;4991497;28;20205;-54
2022/06/09 05:04:50;;;;;;;3.35;0.90;;;17.40;54.10;;;;;;4990838;28;20209;-55
2022/06/09 05:07:20;;;;;;;1.10;0.65;;;17.40;54.10;;;;;;4990824;28;20217;-51
2022/06/09 05:09:51;;;;;;;1.45;0.80;;;17.40;54.10;;;;;;4990154;28;20201;-53
2022/06/09 05:12:22;;;;;;;0.57;0.55;;;17.30;54.00;;;;;;4990164;28;20256;-54
2022/06/09 05:14:53;;;;;;;0.80;0.70;;;17.30;54.00;;;;;;4990286;28;20198;-53
2022/06/09 05:17:24;;;;;;;0.60;0.50;;;17.30;54.00;;;;;;4972378;28;20234;-54
2022/06/09 05:19:57;;;;;;;1.13;0.68;;;17.30;54.00;;;;;;4990125;28;20714;-52
2022/06/09 05:22:27;;;;;;;0.90;0.60;;;17.30;54.00;;;;;;4989937;28;20197;-53
2022/06/09 05:24:59;;;;;;;1.13;0.60;;;17.30;54.10;;;;;;4990826;28;20369;-53
2022/06/09 05:27:30;;;;;;;0.68;0.65;;;17.30;54.10;;;;;;4990233;28;20224;-56
2022/06/09 05:30:01;;;;;;;1.17;0.60;;;17.30;54.10;;;;;;4990722;28;20202;-53
2022/06/09 05:32:31;;;;;;;0.60;0.60;;;17.30;54.10;;;;;;4977284;28;20194;-53
2022/06/09 05:35:04;;;;;;;2.75;0.57;;;17.30;54.10;;;;;;4981983;28;20212;-54
2022/06/09 05:45:51;;;;;;;0.80;0.60;;;17.20;54.30;;;;;;4974397;28;20201;-52
2022/06/09 05:48:22;;;;;;;1.10;0.63;;;17.20;54.30;;;;;;4974704;28;20214;-54
2022/06/09 05:50:55;;;;;;;1.15;0.60;;;17.20;54.30;;;;;;4980288;28;20225;-53
2022/06/09 05:53:26;;;;;;;1.10;0.80;;;17.10;54.20;;;;;;4994229;28;20201;-53
2022/06/09 05:55:57;;;;;;;1.48;0.60;;;17.10;54.10;;;;;;4996428;23;20463;-55
2022/06/09 05:58:27;;;;;;;2.00;0.70;;;17.10;53.90;;;;;;4989977;28;20221;-53
2022/06/09 06:00:58;;;;;;;0.90;0.65;;;17.10;53.90;;;;;;4994111;28;20229;-55
2022/06/09 06:03:29;;;;;;;0.73;0.60;;;17.10;53.90;;;;;;4993815;28;20206;-55
2022/06/09 06:08:48;;;;;;;0.77;0.70;;;17.00;53.80;;;;;;4993438;28;20220;-51
2022/06/09 06:11:19;;;;;;;1.30;0.60;;;17.00;53.80;;;;;;4993082;28;20201;-53
2022/06/09 06:13:50;;;;;;;0.70;0.70;;;17.00;53.80;;;;;;4992965;28;20204;-55
2022/06/09 06:16:20;;;;;;;0.60;0.60;;;17.00;53.90;;;;;;4992819;28;20202;-50
2022/06/09 06:18:51;;;;;;;0.98;0.63;;;17.00;53.90;;;;;;4993038;28;20222;-53
2022/06/09 06:21:25;;;;;;;0.70;0.50;;;17.00;54.00;;;;;;4993158;28;20225;-52
2022/06/09 06:23:56;;;;;;;0.80;0.50;;;17.00;53.90;;;;;;4993087;28;20243;-49
2022/06/09 06:26:29;;;;;;;1.10;0.57;;;17.00;54.00;;;;;;4993041;28;20212;-52
2022/06/09 06:29:00;;;;;;;1.35;0.70;;;17.00;54.00;;;;;;4974241;28;20209;-53
2022/06/09 06:31:31;;;;;;;0.73;0.63;;;17.00;54.00;;;;;;4989035;28;20204;-54
2022/06/09 06:34:02;;;;;;;1.23;0.80;;;17.00;54.10;;;;;;5011998;28;20224;-54
2022/06/09 06:36:35;;;;;;;1.13;0.90;;;17.00;54.00;;;;;;4997671;28;20209;-53
2022/06/09 06:39:05;;;;;;;1.27;0.80;;;16.90;54.00;;;;;;4992348;28;20281;-50
2022/06/09 06:41:38;;;;;;;1.02;0.70;;;16.90;54.10;;;;;;4991741;28;20221;-52
2022/06/09 06:44:09;;;;;;;1.00;0.90;;;16.90;54.20;;;;;;4992660;28;20200;-50
2022/06/09 06:46:40;;;;;;;3.63;0.90;;;16.90;54.30;;;;;;4992724;28;20197;-50
2022/06/09 06:49:10;;;;;;;2.08;0.70;;;16.90;54.40;;;;;;4992494;28;20563;-54
2022/06/09 06:51:43;;;;;;;0.70;0.68;;;16.90;54.50;;;;;;4992298;28;20200;-53
2022/06/09 06:54:14;;;;;;;0.60;0.60;;;16.90;54.50;;;;;;4992088;28;20689;-53
2022/06/09 06:56:44;;;;;;;0.88;0.70;;;16.90;54.50;;;;;;5020367;23;20221;-59
2022/06/09 06:59:15;;;;;;;3.30;0.80;;;16.90;54.60;;;;;;5032095;28;20207;-60
2022/06/09 07:01:46;;;;;;;0.90;0.80;;;16.80;54.50;;;;;;5032288;28;20688;-61
2022/06/09 07:04:17;;;;;;;0.85;0.70;;;16.80;54.60;;;;;;5030807;28;20704;-64
2022/06/09 07:06:49;;;;;;;1.02;0.90;;;16.90;54.60;;;;;;4998944;28;20206;-59
2022/06/09 07:09:20;;;;;;;0.80;0.80;;;16.90;54.60;;;;;;4992477;28;20197;-59
2022/06/09 07:11:51;;;;;;;1.10;0.82;;;16.80;54.50;;;;;;4992299;28;20201;-62
2022/06/09 07:14:21;;;;;;;1.00;0.68;;;16.80;54.50;;;;;;4997306;28;20657;-59
2022/06/09 07:16:52;;;;;;;2.42;1.00;;;16.80;54.50;;;;;;5008620;28;20223;-58
2022/06/09 07:19:23;;;;;;;1.48;0.77;;;16.80;54.60;;;;;;5003292;28;21082;-58
2022/06/09 07:21:55;;;;;;;1.77;1.05;;;16.80;54.60;;;;;;5011452;28;20200;-58
2022/06/09 07:24:26;;;;;;;1.33;0.80;;;16.80;54.90;;;;;;5011547;28;20200;-59
2022/06/09 07:26:57;;;;;;;0.45;0.40;;;16.80;55.60;;;;;;5015867;28;20212;-58
2022/06/09 07:29:28;;;;;;;1.10;0.63;;;16.80;54.90;;;;;;5030617;28;20211;-59
2022/06/09 07:31:58;;;;;;;1.25;0.88;;;16.80;54.70;;;;;;5031775;28;20200;-59
2022/06/09 07:34:29;;;;;;;1.15;0.60;;;16.70;54.60;;;;;;5030757;28;20568;-60
2022/06/09 07:37:02;;;;;;;1.83;0.80;;;16.70;54.60;;;;;;5028466;28;20216;-57
2022/06/09 07:39:33;;;;;;;1.15;0.90;;;16.70;55.10;;;;;;5012057;28;20232;-63
2022/06/09 07:42:04;;;;;;;1.95;0.50;;;16.70;54.60;;;;;;5012631;28;20289;-59
2022/06/09 07:44:35;;;;;;;0.90;0.70;;;16.70;54.50;;;;;;5030759;28;20212;-60
2022/06/09 07:47:07;;;;;;;0.82;0.73;;;16.70;54.50;;;;;;5015520;28;20240;-58
2022/06/09 07:49:38;;;;;;;1.20;0.70;;;16.70;54.50;;;;;;4998325;28;20200;-59
2022/06/09 07:52:11;;;;;;;1.42;0.70;;;16.70;54.60;;;;;;5030576;28;20207;-58
2022/06/09 07:54:41;;;;;;;0.88;0.70;;;16.70;54.80;;;;;;5015254;28;20200;-59
2022/06/09 07:57:13;;;;;;;1.17;0.60;;;16.70;54.80;;;;;;5010929;28;20299;-59
2022/06/09 07:59:43;;;;;;;0.95;0.70;;;16.70;55.60;;;;;;5010876;28;20193;-60
2022/06/09 08:02:15;;;;;;;1.35;0.90;;;16.60;54.90;;;;;;5010124;28;20653;-59
2022/06/09 08:04:45;;;;;;;1.75;0.70;;;16.60;54.70;;;;;;5008940;28;20193;-59
2022/06/09 08:07:18;;;;;;;1.60;0.80;;;16.60;54.70;;;;;;4995984;28;20696;-60
2022/06/09 08:09:49;;;;;;;0.98;0.70;;;16.60;54.60;;;;;;5008479;28;20204;-59
2022/06/09 08:12:19;;;;;;;1.40;0.65;;;16.60;54.60;;;;;;5009682;28;20197;-59
2022/06/09 08:14:50;;;;;;;1.10;0.50;;;16.60;54.60;;;;;;5010275;28;20193;-59
2022/06/09 08:17:22;;;;;;;0.80;0.60;;;16.60;54.60;;;;;;5010456;28;20224;-60
2022/06/09 08:19:53;;;;;;;0.82;0.55;;;16.60;54.60;;;;;;5009154;28;20196;-59
2022/06/09 08:22:26;;;;;;;0.85;0.70;;;16.50;54.70;;;;;;5009802;28;20188;-59
2022/06/09 08:24:56;;;;;;;0.80;0.57;;;16.50;54.70;;;;;;5009132;28;20197;-58
2022/06/09 08:27:27;;;;;;;2.88;0.70;;;16.50;54.70;;;;;;5018335;28;20219;-59
2022/06/09 08:29:58;;;;;;;1.02;0.60;;;16.50;54.70;;;;;;5013087;28;20244;-60
2022/06/09 08:32:28;;;;;;;1.40;0.60;;;16.50;54.70;;;;;;5010415;28;20197;-59
2022/06/09 08:34:59;;;;;;;1.00;0.63;;;16.50;54.70;;;;;;5008594;28;20197;-60
2022/06/09 08:37:32;;;;;;;0.70;0.65;;;16.50;54.70;;;;;;4990289;28;20222;-58
2022/06/09 08:40:02;;;;;;;1.20;0.70;;;16.50;54.70;;;;;;4990609;28;20201;-59
2022/06/09 08:42:42;;;;;;;1.83;0.63;;;16.40;54.70;;;;;;5002698;28;20648;-60
2022/06/09 08:45:16;;;;;;;1.17;0.70;;;16.40;54.70;;;;;;5010650;28;20196;-59
2022/06/09 08:47:50;;;;;;;0.75;0.52;;;16.40;54.70;;;;;;5010027;28;20221;-60
2022/06/09 08:50:24;;;;;;;1.58;0.80;;;16.40;54.70;;;;;;5009224;28;20211;-59
2022/06/09 08:53:01;;;;;;;1.25;0.60;;;16.40;54.70;;;;;;5008518;28;20200;-60
2022/06/09 08:55:40;;;;;;;0.77;0.60;;;16.40;54.70;;;;;;5010122;28;20220;-60
2022/06/09 08:58:18;;;;;;;0.60;0.60;;;16.40;54.70;;;;;;5011341;28;20217;-59
2022/06/09 09:00:52;;;;;;;0.90;0.65;;;16.40;54.70;;;;;;5009869;28;20221;-59
2022/06/09 09:03:29;;;;;;;1.15;0.70;;;16.30;54.70;;;;;;5009602;28;20203;-60
2022/06/09 09:06:04;;;;;;;0.60;0.50;;;16.30;54.80;;;;;;5003679;28;20200;-60
2022/06/09 09:08:37;;;;;;;1.13;0.68;;;16.30;54.80;;;;;;5012367;28;20299;-60
2022/06/09 09:11:38;;;;;;;1.17;0.65;;;16.30;54.80;;;;;;5013075;28;20204;-58
2022/06/09 09:14:14;;;;;;;1.35;0.60;;;16.30;54.80;;;;;;5011437;28;20196;-59
2022/06/09 09:16:51;;;;;;;0.52;0.50;;;16.30;54.80;;;;;;5012318;28;20200;-60
2022/06/09 09:19:31;;;;;;;0.70;0.60;;;16.30;54.80;;;;;;5012691;28;20192;-60
2022/06/09 09:22:10;;;;;;;0.43;0.40;;;16.30;54.80;;;;;;5013040;28;20433;-61
2022/06/09 09:24:54;;;;;;;0.68;0.60;;;16.20;54.80;;;;;;5012897;28;20205;-60
2022/06/09 09:27:36;;;;;;;0.70;0.47;;;16.20;54.90;;;;;;5021644;28;20684;-61
2022/06/09 09:30:17;;;;;;;0.90;0.50;;;16.20;54.90;;;;;;5033889;28;20239;-61
2022/06/09 09:32:50;;;;;;;0.75;0.30;;;16.20;54.90;;;;;;5032823;28;20200;-60
2022/06/09 09:35:23;;;;;;;0.52;0.52;;;16.20;54.90;;;;;;5025928;28;20223;-61
2022/06/09 09:37:56;;;;;;;0.90;0.63;;;16.20;54.90;;;;;;5014189;28;20239;-60
2022/06/09 09:40:33;;;;;;;0.73;0.50;;;16.20;54.90;;;;;;4994590;28;20214;-62
2022/06/09 09:43:08;;;;;;;0.55;0.55;;;16.20;54.90;;;;;;4994200;28;20204;-60
2022/06/09 09:45:41;;;;;;;0.50;0.50;;;16.20;54.90;;;;;;4994033;28;20211;-60
2022/06/09 09:48:34;;;;;;;0.75;0.50;;;16.20;54.90;;;;;;4994242;28;20220;-60
2022/06/09 09:51:10;;;;;;;0.50;0.50;;;16.20;55.00;;;;;;4994306;28;20193;-55
2022/06/09 09:53:44;;;;;;;1.95;0.63;;;16.20;55.00;;;;;;4998991;28;20645;-56
2022/06/09 09:56:36;;;;;;;3.20;0.80;;;16.20;55.70;;;;;;5014562;28;20364;-59
2022/06/09 09:59:20;;;;;;;1.40;0.65;;;16.20;58.30;;;;;;5016434;28;20561;-59
2022/06/09 10:10:25;;;;;;;3.85;0.98;;;16.30;58.20;;;;;;5001469;28;20201;-60
2022/06/09 10:12:59;;;;;;;2.60;1.02;;;16.40;58.00;;;;;;5010353;28;20197;-59
2022/06/09 10:15:30;;;;;;;1.83;0.80;;;16.40;57.90;;;;;;5012026;28;20188;-59
2022/06/09 10:18:03;;;;;;;1.00;0.70;;;16.40;57.60;;;;;;5012116;28;20221;-60
2022/06/09 10:20:37;;;;;;;1.88;0.60;;;16.40;57.40;;;;;;5012136;28;20540;-59
2022/06/09 10:23:32;;;;;;;1.15;0.90;;;16.40;57.80;;;;;;5013337;28;20193;-59
2022/06/09 10:26:08;;;;;;;1.50;0.82;;;16.40;57.10;;;;;;5012619;28;20585;-59
2022/06/09 10:28:49;;;;;;;0.80;0.55;;;16.30;56.90;;;;;;5030406;28;20740;-59
2022/06/09 10:31:44;;;;;;;1.48;0.82;;;16.30;56.80;;;;;;5032157;28;20196;-59
2022/06/09 10:34:25;;;;;;;1.05;0.65;;;16.30;56.70;;;;;;5014674;28;20212;-60
2022/06/09 10:37:03;;;;;;;1.55;0.80;;;16.40;56.70;;;;;;4993947;28;20229;-60
2022/06/09 10:39:41;;;;;;;3.03;1.00;;;16.30;56.60;;;;;;5004340;28;20200;-58
2022/06/09 10:42:24;;;;;;;2.22;0.90;;;16.30;56.60;;;;;;5012061;28;20243;-59
2022/06/09 10:45:14;;;;;;;1.00;0.57;;;16.30;56.50;;;;;;5011455;28;20400;-59
2022/06/09 10:56:45;;;;;;;1.55;0.70;;;16.30;56.20;;;;;;5012382;28;20203;-61
2022/06/09 10:59:19;;;;;;;1.48;1.00;;;16.30;56.20;;;;;;5011656;28;20200;-61
2022/06/09 11:01:52;;;;;;;0.95;0.70;;;16.30;56.10;;;;;;5011864;28;20358;-60
2022/06/09 11:04:23;;;;;;;2.45;0.65;;;16.20;56.00;;;;;;5020902;28;20196;-61
2022/06/09 11:07:35;;;;;;;1.40;0.80;;;16.20;56.10;;;;;;5012146;28;20217;-59
2022/06/09 11:10:25;;;;;;;1.80;1.00;;;16.20;56.00;;;;;;4949357;28;20342;-59
2022/06/09 11:13:16;;;;;;;1.42;0.80;;;16.20;55.90;;;;;;4951031;28;20198;-59
2022/06/09 11:15:53;;;;;;;1.40;0.65;;;16.20;55.80;;;;;;5001849;28;20287;-60
2022/06/09 11:18:34;;;;;;;2.30;0.75;;;16.20;55.80;;;;;;5012359;28;20220;-61
2022/06/09 11:21:16;;;;;;;1.92;0.60;;;16.20;55.80;;;;;;5010416;28;20217;-60
2022/06/09 11:24:13;;;;;;;1.45;0.70;;;16.20;55.70;;;;;;5011601;28;20232;-61
2022/06/09 11:26:50;;;;;;;1.05;0.80;;;16.20;55.70;;;;;;5012005;28;20213;-60
2022/06/09 11:29:47;;;;;;;1.27;0.70;;;16.20;55.70;;;;;;5031465;28;20230;-60
2022/06/09 11:32:26;;;;;;;1.23;0.73;;;16.20;55.70;;;;;;5031614;28;20196;-60
2022/06/09 11:35:17;;;;;;;3.30;0.80;;;16.10;55.60;;;;;;5030259;28;20203;-59
2022/06/09 11:38:12;;;;;;;0.85;0.60;;;16.20;55.60;;;;;;5011303;28;20217;-59
2022/06/09 11:40:48;;;;;;;2.25;0.73;;;16.10;55.60;;;;;;5013937;28;20552;-60
2022/06/09 11:43:41;;;;;;;1.67;0.80;;;16.10;55.60;;;;;;5011033;28;20197;-60
2022/06/09 11:46:18;;;;;;;1.75;0.90;;;16.10;55.60;;;;;;5010926;28;20224;-59
2022/06/09 11:48:52;;;;;;;1.58;0.60;;;16.10;55.50;;;;;;5011116;28;20223;-60
2022/06/09 11:51:27;;;;;;;1.38;0.98;;;16.10;55.60;;;;;;5011313;28;20688;-59
2022/06/09 11:54:00;;;;;;;2.50;0.70;;;16.10;55.60;;;;;;5011219;28;20200;-60
2022/06/09 11:56:40;;;;;;;0.98;0.60;;;16.10;55.50;;;;;;5011410;28;20204;-60
2022/06/09 11:59:23;;;;;;;1.35;0.90;;;16.10;55.50;;;;;;5015983;28;20230;-60
2022/06/09 12:02:32;;;;;;;1.30;0.80;;;16.10;55.50;;;;;;5030910;28;20216;-60
2022/06/09 12:05:31;;;;;;;0.90;0.70;;;16.10;55.50;;;;;;5018102;28;20195;-60
2022/06/09 12:08:19;;;;;;;3.10;0.85;;;16.10;55.40;;;;;;4991454;28;20217;-60
2022/06/09 12:11:08;;;;;;;1.45;0.70;;;16.00;55.30;;;;;;4991036;28;20198;-64
2022/06/09 12:13:50;;;;;;;0.95;0.57;;;16.10;56.40;;;;;;4991827;28;20212;-61
2022/06/09 12:16:34;;;;;;;0.80;0.50;;;16.10;56.90;;;;;;4991933;28;20223;-60
2022/06/09 12:19:21;;;;;;;3.15;0.77;;;16.10;57.10;;;;;;4991043;28;20654;-61
2022/06/09 12:21:55;;;;;;;1.13;0.43;;;16.10;57.40;;;;;;4990292;28;20221;-61
2022/06/09 12:24:46;;;;;;;2.25;0.68;;;16.10;57.50;;;;;;4990869;28;20193;-61
2022/06/09 12:27:39;;;;;;;3.20;0.70;;;16.10;57.60;;;;;;5003426;28;20755;-60
2022/06/09 12:30:26;;;;;;;1.85;0.60;;;16.20;57.70;;;;;;5009044;28;20204;-61
2022/06/09 12:33:12;;;;;;;0.90;0.60;;;16.20;57.80;;;;;;5009491;28;20211;-61
2022/06/09 12:35:51;;;;;;;1.48;0.63;;;16.20;57.90;;;;;;5008762;28;20254;-61
2022/06/09 12:38:28;;;;;;;1.67;0.80;;;16.20;57.90;;;;;;5009107;28;20220;-62
2022/06/09 12:41:02;;;;;;;1.98;0.80;;;16.20;57.90;;;;;;5013030;28;20200;-61
2022/06/09 12:43:37;;;;;;;1.05;0.52;;;16.20;58.40;;;;;;5013359;28;20232;-61
2022/06/09 12:46:22;;;;;;;1.30;0.60;;;16.30;57.80;;;;;;5012544;28;20200;-61
2022/06/09 12:48:53;;;;;;;0.52;0.40;;;16.30;57.80;;;;;;5012558;28;20243;-61
2022/06/09 12:51:29;;;;;;;1.00;0.52;;;16.30;57.70;;;;;;5012986;28;20204;-60
2022/06/09 12:54:07;;;;;;;1.88;0.60;;;16.30;57.60;;;;;;5013413;28;20683;-60
2022/06/09 12:56:44;;;;;;;2.25;0.85;;;16.30;57.60;;;;;;5013571;28;20215;-61
2022/06/09 12:59:28;;;;;;;1.45;0.60;;;16.30;57.60;;;;;;5015683;28;20193;-62
2022/06/09 13:02:02;;;;;;;0.63;0.60;;;16.30;57.50;;;;;;5013414;28;21492;-62
2022/06/09 13:04:34;;;;;;;1.77;0.57;;;16.40;57.50;;;;;;5013400;28;20197;-61
2022/06/09 13:07:15;;;;;;;0.75;0.50;;;16.40;57.50;;;;;;5013203;28;20227;-62
2022/06/09 13:10:00;;;;;;;1.73;0.77;;;16.40;57.40;;;;;;5013420;28;20212;-61
2022/06/09 13:15:38;;;;;;;0.75;0.50;;;16.40;57.30;;;;;;5012317;28;20200;-61
2022/06/09 13:18:18;;;;;;;1.30;0.82;;;16.40;57.20;;;;;;5015587;28;20213;-62
2022/06/09 13:20:55;;;;;;;1.17;0.77;;;16.40;57.20;;;;;;5013206;28;20201;-61
2022/06/09 13:23:27;;;;;;;1.35;0.70;;;16.40;57.10;;;;;;5026523;28;20718;-61
2022/06/09 13:25:59;;;;;;;2.33;0.98;;;16.40;57.10;;;;;;5032422;28;20196;-61
2022/06/09 13:28:47;;;;;;;3.83;1.27;;;16.40;57.10;;;;;;5029980;28;20220;-62
2022/06/09 13:31:38;;;;;;;1.67;1.05;;;16.40;57.00;;;;;;5013322;28;20340;-61
2022/06/09 13:34:21;;;;;;;1.95;1.08;;;16.50;56.90;;;;;;5014387;28;20197;-61
2022/06/09 13:37:14;;;;;;;1.13;0.90;;;16.40;56.80;;;;;;5014846;28;20231;-61
2022/06/09 13:39:53;;;;;;;2.63;1.30;;;16.50;56.80;;;;;;5012715;28;20201;-60
2022/06/09 13:42:27;;;;;;;2.40;1.20;;;16.50;56.80;;;;;;5012192;28;20707;-60
2022/06/09 13:45:27;;;;;;;3.42;1.30;;;16.50;56.70;;;;;;5013341;28;20655;-60
2022/06/09 13:48:15;;;;;;;2.20;1.20;;;16.50;56.70;;;;;;5000564;28;20217;-61
2022/06/09 13:50:49;;;;;;;2.40;1.20;;;16.50;56.60;;;;;;5011199;28;20205;-60
2022/06/09 13:53:33;;;;;;;3.08;1.23;;;16.50;56.50;;;;;;5012655;28;20192;-59
2022/06/09 13:56:05;;;;;;;2.72;1.30;;;16.50;56.50;;;;;;5013334;28;20657;-61
2022/06/09 13:58:35;;;;;;;2.25;1.15;;;16.50;56.50;;;;;;5013735;28;20217;-59
2022/06/09 14:01:09;;;;;;;2.65;1.38;;;16.50;56.50;;;;;;5012467;28;20657;-61